sensor_id;sensor_type;location;lat;lon;timestamp;P1;durP1;ratioP1;P2;durP2;ratioP2
78095;SDS011;67328;42.022;21.354;2023-01-29T00:00:36;47.70;;;24.73;;
78095;SDS011;67328;42.022;21.354;2023-01-29T00:03:02;50.45;;;28.30;;
78095;SDS011;67328;42.022;21.354;2023-01-29T00:05:29;44.88;;;23.92;;
78095;SDS011;67328;42.022;21.354;2023-01-29T00:07:56;49.03;;;27.92;;
78095;SDS011;67328;42.022;21.354;2023-01-29T00:10:23;53.45;;;29.65;;
78095;SDS011;67328;42.022;21.354;2023-01-29T00:15:53;51.72;;;27.95;;
78095;SDS011;67328;42.022;21.354;2023-01-29T00:18:20;47.85;;;26.10;;
78095;SDS011;67328;42.022;21.354;2023-01-29T00:20:47;50.47;;;28.77;;
78095;SDS011;67328;42.022;21.354;2023-01-29T00:23:13;52.92;;;28.67;;
78095;SDS011;67328;42.022;21.354;2023-01-29T00:25:41;49.80;;;27.90;;
78095;SDS011;67328;42.022;21.354;2023-01-29T00:28:08;44.30;;;26.35;;
78095;SDS011;67328;42.022;21.354;2023-01-29T00:30:34;41.83;;;25.10;;
78095;SDS011;67328;42.022;21.354;2023-01-29T00:33:00;47.70;;;24.90;;
78095;SDS011;67328;42.022;21.354;2023-01-29T00:35:27;44.42;;;24.35;;
78095;SDS011;67328;42.022;21.354;2023-01-29T00:37:56;49.88;;;28.13;;
78095;SDS011;67328;42.022;21.354;2023-01-29T00:40:22;41.72;;;24.38;;
78095;SDS011;67328;42.022;21.354;2023-01-29T00:45:51;38.97;;;21.50;;
78095;SDS011;67328;42.022;21.354;2023-01-29T00:48:17;39.42;;;22.73;;
78095;SDS011;67328;42.022;21.354;2023-01-29T00:50:43;47.08;;;27.20;;
78095;SDS011;67328;42.022;21.354;2023-01-29T00:53:09;53.83;;;30.45;;
78095;SDS011;67328;42.022;21.354;2023-01-29T00:55:36;45.53;;;25.85;;
78095;SDS011;67328;42.022;21.354;2023-01-29T01:01:05;37.53;;;22.08;;
78095;SDS011;67328;42.022;21.354;2023-01-29T01:03:31;43.00;;;25.73;;
78095;SDS011;67328;42.022;21.354;2023-01-29T01:06:03;46.22;;;25.98;;
78095;SDS011;67328;42.022;21.354;2023-01-29T01:08:29;48.33;;;25.83;;
78095;SDS011;67328;42.022;21.354;2023-01-29T01:11:13;58.20;;;29.23;;
78095;SDS011;67328;42.022;21.354;2023-01-29T01:13:39;53.42;;;26.95;;
78095;SDS011;67328;42.022;21.354;2023-01-29T01:16:09;51.30;;;27.67;;
78095;SDS011;67328;42.022;21.354;2023-01-29T01:18:36;53.15;;;27.58;;
78095;SDS011;67328;42.022;21.354;2023-01-29T01:21:02;41.35;;;24.00;;
78095;SDS011;67328;42.022;21.354;2023-01-29T01:23:28;53.58;;;27.88;;
78095;SDS011;67328;42.022;21.354;2023-01-29T01:25:54;51.40;;;25.90;;
78095;SDS011;67328;42.022;21.354;2023-01-29T01:31:24;32.33;;;18.85;;
78095;SDS011;67328;42.022;21.354;2023-01-29T01:33:50;45.15;;;25.25;;
78095;SDS011;67328;42.022;21.354;2023-01-29T01:36:18;38.38;;;22.05;;
78095;SDS011;67328;42.022;21.354;2023-01-29T01:38:44;42.92;;;23.13;;
78095;SDS011;67328;42.022;21.354;2023-01-29T01:41:11;43.47;;;23.00;;
78095;SDS011;67328;42.022;21.354;2023-01-29T01:47:00;38.30;;;22.60;;
78095;SDS011;67328;42.022;21.354;2023-01-29T01:49:26;43.45;;;23.00;;
78095;SDS011;67328;42.022;21.354;2023-01-29T01:51:52;44.03;;;23.45;;
78095;SDS011;67328;42.022;21.354;2023-01-29T01:54:22;46.17;;;24.13;;
78095;SDS011;67328;42.022;21.354;2023-01-29T01:56:51;43.30;;;23.42;;
78095;SDS011;67328;42.022;21.354;2023-01-29T01:59:19;41.25;;;23.27;;
78095;SDS011;67328;42.022;21.354;2023-01-29T02:01:49;46.45;;;25.05;;
78095;SDS011;67328;42.022;21.354;2023-01-29T02:04:17;45.10;;;24.52;;
78095;SDS011;67328;42.022;21.354;2023-01-29T02:07:03;48.42;;;25.63;;
78095;SDS011;67328;42.022;21.354;2023-01-29T02:09:51;41.58;;;23.65;;
78095;SDS011;67328;42.022;21.354;2023-01-29T02:12:19;49.80;;;26.63;;
78095;SDS011;67328;42.022;21.354;2023-01-29T02:14:45;47.70;;;26.17;;
78095;SDS011;67328;42.022;21.354;2023-01-29T02:17:13;44.90;;;23.63;;
78095;SDS011;67328;42.022;21.354;2023-01-29T02:19:47;40.78;;;21.08;;
78095;SDS011;67328;42.022;21.354;2023-01-29T02:25:11;37.22;;;21.10;;
78095;SDS011;67328;42.022;21.354;2023-01-29T02:30:37;34.15;;;19.60;;
78095;SDS011;67328;42.022;21.354;2023-01-29T02:33:04;40.58;;;23.83;;
78095;SDS011;67328;42.022;21.354;2023-01-29T02:35:34;45.33;;;22.70;;
78095;SDS011;67328;42.022;21.354;2023-01-29T02:38:08;41.13;;;23.45;;
78095;SDS011;67328;42.022;21.354;2023-01-29T02:48:04;43.50;;;23.92;;
78095;SDS011;67328;42.022;21.354;2023-01-29T02:50:39;36.25;;;22.38;;
78095;SDS011;67328;42.022;21.354;2023-01-29T02:58:01;32.95;;;20.30;;
78095;SDS011;67328;42.022;21.354;2023-01-29T03:00:29;33.22;;;20.00;;
78095;SDS011;67328;42.022;21.354;2023-01-29T03:06:01;36.85;;;19.42;;
78095;SDS011;67328;42.022;21.354;2023-01-29T03:11:07;19.05;;;10.13;;
78095;SDS011;67328;42.022;21.354;2023-01-29T03:13:47;21.02;;;10.90;;
78095;SDS011;67328;42.022;21.354;2023-01-29T03:16:19;30.50;;;16.08;;
78095;SDS011;67328;42.022;21.354;2023-01-29T03:18:56;19.98;;;11.75;;
78095;SDS011;67328;42.022;21.354;2023-01-29T03:21:28;22.85;;;12.38;;
78095;SDS011;67328;42.022;21.354;2023-01-29T03:24:15;20.80;;;11.10;;
78095;SDS011;67328;42.022;21.354;2023-01-29T03:30:04;23.33;;;11.98;;
78095;SDS011;67328;42.022;21.354;2023-01-29T03:32:51;18.38;;;10.25;;
78095;SDS011;67328;42.022;21.354;2023-01-29T03:35:18;16.77;;;9.05;;
78095;SDS011;67328;42.022;21.354;2023-01-29T03:37:57;28.08;;;13.32;;
78095;SDS011;67328;42.022;21.354;2023-01-29T03:40:23;21.40;;;12.25;;
78095;SDS011;67328;42.022;21.354;2023-01-29T03:51:05;19.15;;;9.80;;
78095;SDS011;67328;42.022;21.354;2023-01-29T03:56:24;17.55;;;10.45;;
78095;SDS011;67328;42.022;21.354;2023-01-29T04:01:57;19.05;;;10.57;;
78095;SDS011;67328;42.022;21.354;2023-01-29T04:04:31;18.52;;;9.93;;
78095;SDS011;67328;42.022;21.354;2023-01-29T04:07:09;21.52;;;10.95;;
78095;SDS011;67328;42.022;21.354;2023-01-29T04:10:22;17.85;;;10.23;;
78095;SDS011;67328;42.022;21.354;2023-01-29T04:12:25;25.33;;;11.93;;
78095;SDS011;67328;42.022;21.354;2023-01-29T04:14:53;22.52;;;13.38;;
78095;SDS011;67328;42.022;21.354;2023-01-29T04:17:21;20.85;;;11.70;;
78095;SDS011;67328;42.022;21.354;2023-01-29T04:19:48;20.42;;;11.32;;
78095;SDS011;67328;42.022;21.354;2023-01-29T04:22:19;14.60;;;7.97;;
78095;SDS011;67328;42.022;21.354;2023-01-29T04:24:46;20.17;;;9.82;;
78095;SDS011;67328;42.022;21.354;2023-01-29T04:33:42;16.50;;;8.82;;
78095;SDS011;67328;42.022;21.354;2023-01-29T04:36:13;17.35;;;9.25;;
78095;SDS011;67328;42.022;21.354;2023-01-29T04:46:46;12.65;;;7.25;;
78095;SDS011;67328;42.022;21.354;2023-01-29T04:51:48;14.40;;;8.38;;
78095;SDS011;67328;42.022;21.354;2023-01-29T04:54:22;13.95;;;7.28;;
78095;SDS011;67328;42.022;21.354;2023-01-29T05:02:23;10.32;;;6.10;;
78095;SDS011;67328;42.022;21.354;2023-01-29T05:04:49;10.07;;;6.07;;
78095;SDS011;67328;42.022;21.354;2023-01-29T05:07:15;10.07;;;6.03;;
78095;SDS011;67328;42.022;21.354;2023-01-29T05:09:43;9.48;;;5.85;;
78095;SDS011;67328;42.022;21.354;2023-01-29T05:12:10;9.55;;;5.68;;
78095;SDS011;67328;42.022;21.354;2023-01-29T05:17:41;11.57;;;6.65;;
78095;SDS011;67328;42.022;21.354;2023-01-29T05:20:08;12.90;;;6.68;;
78095;SDS011;67328;42.022;21.354;2023-01-29T05:22:36;11.82;;;6.47;;
78095;SDS011;67328;42.022;21.354;2023-01-29T05:25:02;9.00;;;5.13;;
78095;SDS011;67328;42.022;21.354;2023-01-29T05:27:30;9.40;;;6.05;;
78095;SDS011;67328;42.022;21.354;2023-01-29T05:33:23;18.52;;;9.20;;
78095;SDS011;67328;42.022;21.354;2023-01-29T05:35:50;18.27;;;9.70;;
78095;SDS011;67328;42.022;21.354;2023-01-29T05:38:16;14.25;;;7.75;;
78095;SDS011;67328;42.022;21.354;2023-01-29T05:40:42;11.93;;;7.05;;
78095;SDS011;67328;42.022;21.354;2023-01-29T05:43:16;11.55;;;6.68;;
78095;SDS011;67328;42.022;21.354;2023-01-29T05:45:42;15.73;;;8.25;;
78095;SDS011;67328;42.022;21.354;2023-01-29T05:48:08;12.82;;;7.43;;
78095;SDS011;67328;42.022;21.354;2023-01-29T05:50:34;13.20;;;7.53;;
78095;SDS011;67328;42.022;21.354;2023-01-29T05:53:00;14.05;;;8.35;;
78095;SDS011;67328;42.022;21.354;2023-01-29T05:55:27;12.63;;;6.53;;
78095;SDS011;67328;42.022;21.354;2023-01-29T05:57:54;14.68;;;7.55;;
78095;SDS011;67328;42.022;21.354;2023-01-29T06:03:42;11.75;;;7.20;;
78095;SDS011;67328;42.022;21.354;2023-01-29T06:06:08;13.85;;;6.90;;
78095;SDS011;67328;42.022;21.354;2023-01-29T06:08:34;9.60;;;6.18;;
78095;SDS011;67328;42.022;21.354;2023-01-29T06:11:00;11.07;;;6.70;;
78095;SDS011;67328;42.022;21.354;2023-01-29T06:13:26;11.65;;;6.80;;
78095;SDS011;67328;42.022;21.354;2023-01-29T06:15:53;13.68;;;7.25;;
78095;SDS011;67328;42.022;21.354;2023-01-29T06:18:19;12.70;;;7.90;;
78095;SDS011;67328;42.022;21.354;2023-01-29T06:20:45;12.65;;;7.15;;
78095;SDS011;67328;42.022;21.354;2023-01-29T06:23:11;14.35;;;7.57;;
78095;SDS011;67328;42.022;21.354;2023-01-29T06:25:37;12.27;;;6.95;;
78095;SDS011;67328;42.022;21.354;2023-01-29T06:28:03;11.40;;;7.25;;
78095;SDS011;67328;42.022;21.354;2023-01-29T06:33:33;14.07;;;6.65;;
78095;SDS011;67328;42.022;21.354;2023-01-29T06:36:00;14.30;;;7.97;;
78095;SDS011;67328;42.022;21.354;2023-01-29T06:38:26;12.95;;;7.20;;
78095;SDS011;67328;42.022;21.354;2023-01-29T06:40:53;12.93;;;7.45;;
78095;SDS011;67328;42.022;21.354;2023-01-29T06:43:19;11.77;;;6.53;;
78095;SDS011;67328;42.022;21.354;2023-01-29T06:45:46;16.27;;;7.43;;
78095;SDS011;67328;42.022;21.354;2023-01-29T06:48:13;12.98;;;7.70;;
78095;SDS011;67328;42.022;21.354;2023-01-29T06:50:39;12.70;;;7.53;;
78095;SDS011;67328;42.022;21.354;2023-01-29T06:53:05;12.10;;;6.93;;
78095;SDS011;67328;42.022;21.354;2023-01-29T06:55:31;13.70;;;6.68;;
78095;SDS011;67328;42.022;21.354;2023-01-29T06:57:57;9.82;;;5.55;;
78095;SDS011;67328;42.022;21.354;2023-01-29T07:03:26;10.98;;;7.18;;
78095;SDS011;67328;42.022;21.354;2023-01-29T07:05:52;10.93;;;6.78;;
78095;SDS011;67328;42.022;21.354;2023-01-29T07:08:18;13.65;;;7.80;;
78095;SDS011;67328;42.022;21.354;2023-01-29T07:10:47;9.77;;;6.45;;
78095;SDS011;67328;42.022;21.354;2023-01-29T07:13:13;10.18;;;6.18;;
78095;SDS011;67328;42.022;21.354;2023-01-29T07:18:42;8.80;;;5.57;;
78095;SDS011;67328;42.022;21.354;2023-01-29T07:21:08;9.02;;;5.40;;
78095;SDS011;67328;42.022;21.354;2023-01-29T07:23:34;9.43;;;5.47;;
78095;SDS011;67328;42.022;21.354;2023-01-29T07:26:04;11.10;;;6.30;;
78095;SDS011;67328;42.022;21.354;2023-01-29T07:28:30;12.57;;;6.93;;
78095;SDS011;67328;42.022;21.354;2023-01-29T07:30:57;13.88;;;6.68;;
78095;SDS011;67328;42.022;21.354;2023-01-29T07:33:23;14.23;;;7.55;;
78095;SDS011;67328;42.022;21.354;2023-01-29T07:35:49;11.20;;;6.63;;
78095;SDS011;67328;42.022;21.354;2023-01-29T07:38:15;14.05;;;6.80;;
78095;SDS011;67328;42.022;21.354;2023-01-29T07:40:41;13.30;;;7.20;;
78095;SDS011;67328;42.022;21.354;2023-01-29T07:43:08;12.18;;;6.72;;
78095;SDS011;67328;42.022;21.354;2023-01-29T07:48:37;12.73;;;5.85;;
78095;SDS011;67328;42.022;21.354;2023-01-29T07:51:03;11.02;;;6.50;;
78095;SDS011;67328;42.022;21.354;2023-01-29T07:53:30;10.90;;;6.63;;
78095;SDS011;67328;42.022;21.354;2023-01-29T07:55:56;13.45;;;6.68;;
78095;SDS011;67328;42.022;21.354;2023-01-29T07:58:22;14.50;;;8.45;;
78095;SDS011;67328;42.022;21.354;2023-01-29T08:03:52;11.52;;;6.78;;
78095;SDS011;67328;42.022;21.354;2023-01-29T08:06:18;12.75;;;7.40;;
78095;SDS011;67328;42.022;21.354;2023-01-29T08:08:44;15.27;;;9.60;;
78095;SDS011;67328;42.022;21.354;2023-01-29T08:11:10;16.40;;;10.73;;
78095;SDS011;67328;42.022;21.354;2023-01-29T08:13:37;15.43;;;8.73;;
78095;SDS011;67328;42.022;21.354;2023-01-29T08:19:06;14.18;;;8.07;;
78095;SDS011;67328;42.022;21.354;2023-01-29T08:21:32;13.50;;;8.23;;
78095;SDS011;67328;42.022;21.354;2023-01-29T08:23:58;14.82;;;8.45;;
78095;SDS011;67328;42.022;21.354;2023-01-29T08:26:24;16.90;;;11.75;;
78095;SDS011;67328;42.022;21.354;2023-01-29T08:28:51;21.10;;;13.07;;
78095;SDS011;67328;42.022;21.354;2023-01-29T08:31:17;11.50;;;7.80;;
78095;SDS011;67328;42.022;21.354;2023-01-29T08:33:47;13.02;;;9.10;;
78095;SDS011;67328;42.022;21.354;2023-01-29T08:36:13;16.85;;;9.45;;
78095;SDS011;67328;42.022;21.354;2023-01-29T08:38:39;14.25;;;8.23;;
78095;SDS011;67328;42.022;21.354;2023-01-29T08:41:05;15.43;;;9.30;;
78095;SDS011;67328;42.022;21.354;2023-01-29T08:43:32;13.82;;;8.55;;
78095;SDS011;67328;42.022;21.354;2023-01-29T08:49:04;20.85;;;10.32;;
78095;SDS011;67328;42.022;21.354;2023-01-29T08:51:30;28.13;;;14.27;;
78095;SDS011;67328;42.022;21.354;2023-01-29T08:53:56;23.63;;;11.65;;
78095;SDS011;67328;42.022;21.354;2023-01-29T08:56:23;12.77;;;8.23;;
78095;SDS011;67328;42.022;21.354;2023-01-29T08:58:49;26.42;;;16.13;;
78095;SDS011;67328;42.022;21.354;2023-01-29T09:04:18;21.27;;;13.70;;
78095;SDS011;67328;42.022;21.354;2023-01-29T09:06:45;12.13;;;7.72;;
78095;SDS011;67328;42.022;21.354;2023-01-29T09:09:11;14.18;;;9.40;;
78095;SDS011;67328;42.022;21.354;2023-01-29T09:11:38;14.80;;;9.45;;
78095;SDS011;67328;42.022;21.354;2023-01-29T09:14:05;16.38;;;10.63;;
78095;SDS011;67328;42.022;21.354;2023-01-29T09:16:31;13.65;;;8.27;;
78095;SDS011;67328;42.022;21.354;2023-01-29T09:18:57;11.73;;;7.53;;
78095;SDS011;67328;42.022;21.354;2023-01-29T09:21:23;10.77;;;7.82;;
78095;SDS011;67328;42.022;21.354;2023-01-29T09:23:50;14.07;;;9.15;;
78095;SDS011;67328;42.022;21.354;2023-01-29T09:26:20;16.73;;;9.95;;
78095;SDS011;67328;42.022;21.354;2023-01-29T09:28:49;13.80;;;7.97;;
78095;SDS011;67328;42.022;21.354;2023-01-29T09:34:19;14.70;;;10.35;;
78095;SDS011;67328;42.022;21.354;2023-01-29T09:36:46;15.52;;;9.52;;
78095;SDS011;67328;42.022;21.354;2023-01-29T09:39:12;15.25;;;8.80;;
78095;SDS011;67328;42.022;21.354;2023-01-29T09:46:49;14.63;;;9.27;;
78095;SDS011;67328;42.022;21.354;2023-01-29T09:51:52;12.55;;;7.35;;
78095;SDS011;67328;42.022;21.354;2023-01-29T09:57:11;13.80;;;7.43;;
78095;SDS011;67328;42.022;21.354;2023-01-29T10:32:34;12.93;;;8.48;;
78095;SDS011;67328;42.022;21.354;2023-01-29T10:35:19;12.80;;;8.48;;
78095;SDS011;67328;42.022;21.354;2023-01-29T10:37:46;12.15;;;8.45;;
78095;SDS011;67328;42.022;21.354;2023-01-29T10:40:21;12.80;;;8.02;;
78095;SDS011;67328;42.022;21.354;2023-01-29T10:42:49;11.77;;;8.27;;
78095;SDS011;67328;42.022;21.354;2023-01-29T11:00:35;10.98;;;7.60;;
78095;SDS011;67328;42.022;21.354;2023-01-29T11:05:50;10.35;;;6.68;;
78095;SDS011;67328;42.022;21.354;2023-01-29T11:08:19;11.60;;;7.57;;
78095;SDS011;67328;42.022;21.354;2023-01-29T11:10:52;11.15;;;8.32;;
78095;SDS011;67328;42.022;21.354;2023-01-29T11:13:19;16.13;;;8.65;;
78095;SDS011;67328;42.022;21.354;2023-01-29T11:15:46;12.50;;;8.70;;
78095;SDS011;67328;42.022;21.354;2023-01-29T11:18:16;16.42;;;9.50;;
78095;SDS011;67328;42.022;21.354;2023-01-29T11:20:43;13.38;;;8.50;;
78095;SDS011;67328;42.022;21.354;2023-01-29T11:23:24;14.40;;;9.65;;
78095;SDS011;67328;42.022;21.354;2023-01-29T11:25:51;13.27;;;9.90;;
78095;SDS011;67328;42.022;21.354;2023-01-29T11:28:33;14.32;;;9.25;;
78095;SDS011;67328;42.022;21.354;2023-01-29T11:31:00;15.68;;;9.77;;
78095;SDS011;67328;42.022;21.354;2023-01-29T11:33:27;15.50;;;8.45;;
78095;SDS011;67328;42.022;21.354;2023-01-29T11:35:53;14.40;;;9.63;;
78095;SDS011;67328;42.022;21.354;2023-01-29T11:38:22;64.97;;;34.67;;
78095;SDS011;67328;42.022;21.354;2023-01-29T11:40:49;52.65;;;29.27;;
78095;SDS011;67328;42.022;21.354;2023-01-29T11:43:20;27.42;;;16.05;;
78095;SDS011;67328;42.022;21.354;2023-01-29T11:45:50;23.13;;;14.70;;
78095;SDS011;67328;42.022;21.354;2023-01-29T11:48:20;24.80;;;15.00;;
78095;SDS011;67328;42.022;21.354;2023-01-29T11:50:52;24.25;;;17.13;;
78095;SDS011;67328;42.022;21.354;2023-01-29T11:53:21;23.70;;;17.30;;
78095;SDS011;67328;42.022;21.354;2023-01-29T11:55:48;17.70;;;12.45;;
78095;SDS011;67328;42.022;21.354;2023-01-29T11:58:16;20.13;;;14.38;;
78095;SDS011;67328;42.022;21.354;2023-01-29T12:00:47;24.42;;;14.45;;
78095;SDS011;67328;42.022;21.354;2023-01-29T12:05:51;27.65;;;18.80;;
78095;SDS011;67328;42.022;21.354;2023-01-29T12:10:47;23.17;;;13.70;;
78095;SDS011;67328;42.022;21.354;2023-01-29T12:15:46;19.05;;;11.77;;
78095;SDS011;67328;42.022;21.354;2023-01-29T12:18:26;21.45;;;12.68;;
78095;SDS011;67328;42.022;21.354;2023-01-29T12:20:59;20.33;;;13.20;;
78095;SDS011;67328;42.022;21.354;2023-01-29T12:34:30;18.00;;;11.45;;
78095;SDS011;67328;42.022;21.354;2023-01-29T12:37:01;16.35;;;10.43;;
78095;SDS011;67328;42.022;21.354;2023-01-29T12:39:29;21.85;;;12.50;;
78095;SDS011;67328;42.022;21.354;2023-01-29T12:41:57;19.17;;;12.07;;
78095;SDS011;67328;42.022;21.354;2023-01-29T12:44:28;17.58;;;11.45;;
78095;SDS011;67328;42.022;21.354;2023-01-29T12:46:56;16.52;;;10.75;;
78095;SDS011;67328;42.022;21.354;2023-01-29T12:49:25;16.90;;;10.57;;
78095;SDS011;67328;42.022;21.354;2023-01-29T12:51:55;17.70;;;11.35;;
78095;SDS011;67328;42.022;21.354;2023-01-29T12:54:26;18.48;;;11.05;;
78095;SDS011;67328;42.022;21.354;2023-01-29T12:56:57;16.50;;;10.57;;
78095;SDS011;67328;42.022;21.354;2023-01-29T13:01:52;16.38;;;11.23;;
78095;SDS011;67328;42.022;21.354;2023-01-29T13:04:29;19.98;;;12.50;;
78095;SDS011;67328;42.022;21.354;2023-01-29T13:07:03;26.35;;;16.23;;
78095;SDS011;67328;42.022;21.354;2023-01-29T13:09:32;22.27;;;12.05;;
78095;SDS011;67328;42.022;21.354;2023-01-29T13:12:01;24.92;;;13.75;;
78095;SDS011;67328;42.022;21.354;2023-01-29T13:14:47;22.25;;;13.80;;
78095;SDS011;67328;42.022;21.354;2023-01-29T13:17:17;16.88;;;11.35;;
78095;SDS011;67328;42.022;21.354;2023-01-29T13:19:45;22.30;;;13.65;;
78095;SDS011;67328;42.022;21.354;2023-01-29T13:22:19;22.48;;;12.88;;
78095;SDS011;67328;42.022;21.354;2023-01-29T13:24:47;22.52;;;13.45;;
78095;SDS011;67328;42.022;21.354;2023-01-29T13:30:03;20.02;;;12.40;;
78095;SDS011;67328;42.022;21.354;2023-01-29T13:32:30;28.05;;;18.65;;
78095;SDS011;67328;42.022;21.354;2023-01-29T13:34:58;26.88;;;16.35;;
78095;SDS011;67328;42.022;21.354;2023-01-29T13:37:29;22.73;;;14.88;;
78095;SDS011;67328;42.022;21.354;2023-01-29T13:39:57;30.55;;;21.02;;
78095;SDS011;67328;42.022;21.354;2023-01-29T13:45:02;19.88;;;12.98;;
78095;SDS011;67328;42.022;21.354;2023-01-29T13:47:39;22.92;;;15.70;;
78095;SDS011;67328;42.022;21.354;2023-01-29T13:52:44;18.35;;;13.13;;
78095;SDS011;67328;42.022;21.354;2023-01-29T14:02:41;24.60;;;15.65;;
78095;SDS011;67328;42.022;21.354;2023-01-29T14:07:57;22.63;;;13.70;;
78095;SDS011;67328;42.022;21.354;2023-01-29T14:10:24;29.90;;;16.35;;
78095;SDS011;67328;42.022;21.354;2023-01-29T14:15:33;25.95;;;16.02;;
78095;SDS011;67328;42.022;21.354;2023-01-29T14:20:28;25.40;;;15.63;;
78095;SDS011;67328;42.022;21.354;2023-01-29T14:22:56;24.33;;;14.07;;
78095;SDS011;67328;42.022;21.354;2023-01-29T14:25:27;19.58;;;12.20;;
78095;SDS011;67328;42.022;21.354;2023-01-29T14:27:54;20.75;;;12.07;;
78095;SDS011;67328;42.022;21.354;2023-01-29T14:30:21;22.05;;;13.18;;
78095;SDS011;67328;42.022;21.354;2023-01-29T14:32:48;21.60;;;12.40;;
78095;SDS011;67328;42.022;21.354;2023-01-29T14:35:22;22.48;;;13.65;;
78095;SDS011;67328;42.022;21.354;2023-01-29T14:37:50;25.25;;;14.73;;
78095;SDS011;67328;42.022;21.354;2023-01-29T14:48:37;19.10;;;11.68;;
78095;SDS011;67328;42.022;21.354;2023-01-29T14:51:05;21.38;;;13.40;;
78095;SDS011;67328;42.022;21.354;2023-01-29T14:53:40;20.45;;;13.02;;
78095;SDS011;67328;42.022;21.354;2023-01-29T15:01:46;22.55;;;12.82;;
78095;SDS011;67328;42.022;21.354;2023-01-29T15:04:17;19.88;;;12.35;;
78095;SDS011;67328;42.022;21.354;2023-01-29T15:06:46;25.33;;;14.88;;
78095;SDS011;67328;42.022;21.354;2023-01-29T15:12:03;22.52;;;12.55;;
78095;SDS011;67328;42.022;21.354;2023-01-29T15:17:28;19.77;;;11.70;;
78095;SDS011;67328;42.022;21.354;2023-01-29T15:19:55;17.35;;;11.40;;
78095;SDS011;67328;42.022;21.354;2023-01-29T15:22:22;21.00;;;11.57;;
78095;SDS011;67328;42.022;21.354;2023-01-29T15:25:08;18.70;;;11.10;;
78095;SDS011;67328;42.022;21.354;2023-01-29T15:27:40;24.60;;;12.95;;
78095;SDS011;67328;42.022;21.354;2023-01-29T15:30:07;27.65;;;14.50;;
78095;SDS011;67328;42.022;21.354;2023-01-29T15:32:39;21.67;;;13.40;;
78095;SDS011;67328;42.022;21.354;2023-01-29T15:35:09;22.92;;;13.23;;
78095;SDS011;67328;42.022;21.354;2023-01-29T15:37:36;22.63;;;13.98;;
78095;SDS011;67328;42.022;21.354;2023-01-29T15:40:03;19.00;;;12.02;;
78095;SDS011;67328;42.022;21.354;2023-01-29T15:44:58;21.83;;;12.20;;
78095;SDS011;67328;42.022;21.354;2023-01-29T15:47:26;21.95;;;12.93;;
78095;SDS011;67328;42.022;21.354;2023-01-29T15:49:53;19.00;;;11.35;;
78095;SDS011;67328;42.022;21.354;2023-01-29T15:52:27;17.13;;;10.25;;
78095;SDS011;67328;42.022;21.354;2023-01-29T15:54:56;22.08;;;11.63;;
78095;SDS011;67328;42.022;21.354;2023-01-29T15:57:28;22.23;;;12.30;;
78095;SDS011;67328;42.022;21.354;2023-01-29T15:59:58;21.45;;;12.90;;
78095;SDS011;67328;42.022;21.354;2023-01-29T16:04:53;25.15;;;14.73;;
78095;SDS011;67328;42.022;21.354;2023-01-29T16:07:19;21.33;;;13.02;;
78095;SDS011;67328;42.022;21.354;2023-01-29T16:09:46;25.63;;;13.65;;
78095;SDS011;67328;42.022;21.354;2023-01-29T16:12:13;21.80;;;12.40;;
78095;SDS011;67328;42.022;21.354;2023-01-29T16:14:39;22.90;;;14.10;;
78095;SDS011;67328;42.022;21.354;2023-01-29T16:17:09;19.27;;;12.10;;
78095;SDS011;67328;42.022;21.354;2023-01-29T16:19:41;18.85;;;11.73;;
78095;SDS011;67328;42.022;21.354;2023-01-29T16:22:07;22.20;;;13.52;;
78095;SDS011;67328;42.022;21.354;2023-01-29T16:24:36;22.63;;;12.93;;
78095;SDS011;67328;42.022;21.354;2023-01-29T16:27:07;21.92;;;12.98;;
78095;SDS011;67328;42.022;21.354;2023-01-29T16:29:35;22.90;;;13.13;;
78095;SDS011;67328;42.022;21.354;2023-01-29T16:32:03;27.48;;;14.40;;
78095;SDS011;67328;42.022;21.354;2023-01-29T16:37:02;23.67;;;12.40;;
78095;SDS011;67328;42.022;21.354;2023-01-29T16:39:55;22.02;;;12.45;;
78095;SDS011;67328;42.022;21.354;2023-01-29T16:42:23;25.77;;;13.23;;
78095;SDS011;67328;42.022;21.354;2023-01-29T16:44:57;19.13;;;11.20;;
78095;SDS011;67328;42.022;21.354;2023-01-29T16:47:30;25.05;;;15.27;;
78095;SDS011;67328;42.022;21.354;2023-01-29T16:49:58;24.25;;;16.05;;
78095;SDS011;67328;42.022;21.354;2023-01-29T16:52:26;26.17;;;15.65;;
78095;SDS011;67328;42.022;21.354;2023-01-29T16:54:57;22.40;;;12.95;;
78095;SDS011;67328;42.022;21.354;2023-01-29T16:57:33;22.10;;;14.55;;
78095;SDS011;67328;42.022;21.354;2023-01-29T17:00:00;22.65;;;12.70;;
78095;SDS011;67328;42.022;21.354;2023-01-29T17:02:38;30.58;;;16.85;;
78095;SDS011;67328;42.022;21.354;2023-01-29T17:05:06;26.70;;;15.75;;
78095;SDS011;67328;42.022;21.354;2023-01-29T17:07:33;25.55;;;14.77;;
78095;SDS011;67328;42.022;21.354;2023-01-29T17:10:00;25.77;;;14.27;;
78095;SDS011;67328;42.022;21.354;2023-01-29T17:12:27;22.45;;;13.90;;
78095;SDS011;67328;42.022;21.354;2023-01-29T17:15:04;24.00;;;14.35;;
78095;SDS011;67328;42.022;21.354;2023-01-29T17:20:15;26.13;;;16.45;;
78095;SDS011;67328;42.022;21.354;2023-01-29T17:22:42;25.98;;;13.18;;
78095;SDS011;67328;42.022;21.354;2023-01-29T17:25:11;23.05;;;12.38;;
78095;SDS011;67328;42.022;21.354;2023-01-29T17:27:41;23.05;;;13.38;;
78095;SDS011;67328;42.022;21.354;2023-01-29T17:30:14;25.05;;;14.77;;
78095;SDS011;67328;42.022;21.354;2023-01-29T17:32:41;24.55;;;13.85;;
78095;SDS011;67328;42.022;21.354;2023-01-29T17:35:10;26.67;;;15.10;;
78095;SDS011;67328;42.022;21.354;2023-01-29T17:37:39;23.35;;;13.40;;
78095;SDS011;67328;42.022;21.354;2023-01-29T17:40:12;24.00;;;14.23;;
78095;SDS011;67328;42.022;21.354;2023-01-29T17:42:43;26.35;;;13.85;;
78095;SDS011;67328;42.022;21.354;2023-01-29T17:45:11;22.08;;;13.80;;
78095;SDS011;67328;42.022;21.354;2023-01-29T17:47:37;25.35;;;14.00;;
78095;SDS011;67328;42.022;21.354;2023-01-29T17:50:36;33.65;;;18.85;;
78095;SDS011;67328;42.022;21.354;2023-01-29T17:52:56;37.03;;;22.98;;
78095;SDS011;67328;42.022;21.354;2023-01-29T17:55:22;35.28;;;19.08;;
78095;SDS011;67328;42.022;21.354;2023-01-29T17:57:48;35.22;;;20.48;;
78095;SDS011;67328;42.022;21.354;2023-01-29T18:00:16;27.58;;;15.65;;
78095;SDS011;67328;42.022;21.354;2023-01-29T18:02:44;33.30;;;19.10;;
78095;SDS011;67328;42.022;21.354;2023-01-29T18:05:11;27.13;;;15.55;;
78095;SDS011;67328;42.022;21.354;2023-01-29T18:07:37;30.38;;;17.45;;
78095;SDS011;67328;42.022;21.354;2023-01-29T18:10:05;32.00;;;19.52;;
78095;SDS011;67328;42.022;21.354;2023-01-29T18:12:31;32.40;;;17.30;;
78095;SDS011;67328;42.022;21.354;2023-01-29T18:14:57;30.83;;;16.73;;
78095;SDS011;67328;42.022;21.354;2023-01-29T18:17:23;28.83;;;17.27;;
78095;SDS011;67328;42.022;21.354;2023-01-29T18:19:49;27.52;;;14.90;;
78095;SDS011;67328;42.022;21.354;2023-01-29T18:22:15;25.48;;;14.40;;
78095;SDS011;67328;42.022;21.354;2023-01-29T18:24:46;32.58;;;19.92;;
78095;SDS011;67328;42.022;21.354;2023-01-29T18:33:01;27.60;;;16.55;;
78095;SDS011;67328;42.022;21.354;2023-01-29T18:35:27;26.73;;;13.90;;
78095;SDS011;67328;42.022;21.354;2023-01-29T18:37:54;24.77;;;13.88;;
78095;SDS011;67328;42.022;21.354;2023-01-29T18:40:20;22.95;;;13.98;;